sensor_id;sensor_type;location;lat;lon;timestamp;temperature;humidity
46898;DHT22;32646;50.958;6.258;2023-12-20T13:34:36;7.40;99.90
46898;DHT22;32646;50.958;6.258;2023-12-20T13:37:03;7.40;99.90
46898;DHT22;32646;50.958;6.258;2023-12-20T13:39:30;7.40;99.90
46898;DHT22;32646;50.958;6.258;2023-12-20T13:41:57;7.30;99.90
46898;DHT22;32646;50.958;6.258;2023-12-20T13:44:27;7.40;99.90
46898;DHT22;32646;50.958;6.258;2023-12-20T13:46:53;7.40;99.90
46898;DHT22;32646;50.958;6.258;2023-12-20T13:49:20;7.30;99.90
46898;DHT22;32646;50.958;6.258;2023-12-20T13:51:47;7.30;99.90
46898;DHT22;32646;50.958;6.258;2023-12-20T13:54:14;7.20;99.90
46898;DHT22;32646;50.958;6.258;2023-12-20T13:56:40;7.20;99.90
46898;DHT22;32646;50.958;6.258;2023-12-20T13:59:22;7.30;99.90
46898;DHT22;32646;50.958;6.258;2023-12-20T14:01:49;7.30;99.90
46898;DHT22;32646;50.958;6.258;2023-12-20T14:04:16;7.30;99.90
46898;DHT22;32646;50.958;6.258;2023-12-20T14:07:03;7.30;99.90
46898;DHT22;32646;50.958;6.258;2023-12-20T14:09:30;7.30;99.90
46898;DHT22;32646;50.958;6.258;2023-12-20T14:11:56;7.30;99.90
46898;DHT22;32646;50.958;6.258;2023-12-20T14:14:23;7.30;99.90
46898;DHT22;32646;50.958;6.258;2023-12-20T14:16:49;7.30;99.90
46898;DHT22;32646;50.958;6.258;2023-12-20T14:19:16;7.40;99.90
46898;DHT22;32646;50.958;6.258;2023-12-20T14:21:43;7.40;99.90
46898;DHT22;32646;50.958;6.258;2023-12-20T14:24:10;7.40;99.90
46898;DHT22;32646;50.958;6.258;2023-12-20T14:26:37;7.40;99.90
46898;DHT22;32646;50.958;6.258;2023-12-20T14:29:04;7.40;99.90
46898;DHT22;32646;50.958;6.258;2023-12-20T14:31:30;7.40;99.90
46898;DHT22;32646;50.958;6.258;2023-12-20T14:33:57;7.30;99.90
46898;DHT22;32646;50.958;6.258;2023-12-20T14:36:24;7.30;99.90
46898;DHT22;32646;50.958;6.258;2023-12-20T14:38:51;7.30;99.90
46898;DHT22;32646;50.958;6.258;2023-12-20T14:41:17;7.30;99.90
46898;DHT22;32646;50.958;6.258;2023-12-20T14:43:44;7.30;99.90
46898;DHT22;32646;50.958;6.258;2023-12-20T14:46:11;7.30;99.90
46898;DHT22;32646;50.958;6.258;2023-12-20T14:48:37;7.40;99.90
46898;DHT22;32646;50.958;6.258;2023-12-20T14:51:04;7.30;99.90
46898;DHT22;32646;50.958;6.258;2023-12-20T14:53:31;7.20;99.90
46898;DHT22;32646;50.958;6.258;2023-12-20T14:55:57;7.00;99.90
46898;DHT22;32646;50.958;6.258;2023-12-20T14:58:24;7.00;99.90
46898;DHT22;32646;50.958;6.258;2023-12-20T15:00:51;6.90;99.90
46898;DHT22;32646;50.958;6.258;2023-12-20T15:03:17;6.90;99.90
46898;DHT22;32646;50.958;6.258;2023-12-20T15:05:44;6.80;99.90
46898;DHT22;32646;50.958;6.258;2023-12-20T15:08:11;6.80;99.90
46898;DHT22;32646;50.958;6.258;2023-12-20T15:10:38;6.80;99.90
46898;DHT22;32646;50.958;6.258;2023-12-20T15:13:04;6.80;99.90
46898;DHT22;32646;50.958;6.258;2023-12-20T15:15:31;6.80;99.90
46898;DHT22;32646;50.958;6.258;2023-12-20T15:17:58;6.70;99.90
46898;DHT22;32646;50.958;6.258;2023-12-20T15:20:24;6.60;99.90
46898;DHT22;32646;50.958;6.258;2023-12-20T15:22:51;6.50;99.90
46898;DHT22;32646;50.958;6.258;2023-12-20T15:25:18;6.60;99.90
46898;DHT22;32646;50.958;6.258;2023-12-20T15:27:45;6.60;99.90
46898;DHT22;32646;50.958;6.258;2023-12-20T15:30:12;6.70;99.90
46898;DHT22;32646;50.958;6.258;2023-12-20T15:32:39;6.70;99.90
46898;DHT22;32646;50.958;6.258;2023-12-20T15:35:06;6.70;99.90
46898;DHT22;32646;50.958;6.258;2023-12-20T15:37:33;6.80;99.90
46898;DHT22;32646;50.958;6.258;2023-12-20T15:40:00;6.80;99.90
46898;DHT22;32646;50.958;6.258;2023-12-20T15:42:31;6.80;99.90
46898;DHT22;32646;50.958;6.258;2023-12-20T15:44:58;6.80;99.90
46898;DHT22;32646;50.958;6.258;2023-12-20T15:47:25;6.90;99.90
46898;DHT22;32646;50.958;6.258;2023-12-20T15:49:51;6.90;99.90
46898;DHT22;32646;50.958;6.258;2023-12-20T15:52:18;6.90;99.90
46898;DHT22;32646;50.958;6.258;2023-12-20T15:54:45;6.90;99.90
46898;DHT22;32646;50.958;6.258;2023-12-20T15:57:12;7.00;99.90
46898;DHT22;32646;50.958;6.258;2023-12-20T15:59:38;7.00;99.90
46898;DHT22;32646;50.958;6.258;2023-12-20T16:02:05;7.00;99.90
46898;DHT22;32646;50.958;6.258;2023-12-20T16:04:32;7.10;99.90
46898;DHT22;32646;50.958;6.258;2023-12-20T16:06:59;7.10;99.90
46898;DHT22;32646;50.958;6.258;2023-12-20T16:09:26;7.10;99.90
46898;DHT22;32646;50.958;6.258;2023-12-20T16:11:53;7.10;99.90
46898;DHT22;32646;50.958;6.258;2023-12-20T16:14:20;7.10;99.90
46898;DHT22;32646;50.958;6.258;2023-12-20T16:16:47;7.10;99.90
46898;DHT22;32646;50.958;6.258;2023-12-20T16:19:14;7.10;99.90
46898;DHT22;32646;50.958;6.258;2023-12-20T16:21:41;7.10;99.90
46898;DHT22;32646;50.958;6.258;2023-12-20T16:24:07;7.20;99.90
46898;DHT22;32646;50.958;6.258;2023-12-20T16:26:34;7.10;99.90
46898;DHT22;32646;50.958;6.258;2023-12-20T16:29:01;7.10;99.90
46898;DHT22;32646;50.958;6.258;2023-12-20T16:31:28;7.10;99.90
46898;DHT22;32646;50.958;6.258;2023-12-20T16:33:54;7.20;99.90
46898;DHT22;32646;50.958;6.258;2023-12-20T16:36:21;7.20;99.90
46898;DHT22;32646;50.958;6.258;2023-12-20T16:38:48;7.20;99.90
46898;DHT22;32646;50.958;6.258;2023-12-20T16:41:14;7.20;99.90
46898;DHT22;32646;50.958;6.258;2023-12-20T16:43:41;7.30;99.90
46898;DHT22;32646;50.958;6.258;2023-12-20T16:46:08;7.40;99.90
46898;DHT22;32646;50.958;6.258;2023-12-20T16:48:35;7.40;99.90
46898;DHT22;32646;50.958;6.258;2023-12-20T16:51:02;7.40;99.90
46898;DHT22;32646;50.958;6.258;2023-12-20T16:53:28;7.40;99.90
46898;DHT22;32646;50.958;6.258;2023-12-20T16:55:55;7.40;99.90
46898;DHT22;32646;50.958;6.258;2023-12-20T16:58:22;7.50;99.90
46898;DHT22;32646;50.958;6.258;2023-12-20T17:00:48;7.60;99.90
46898;DHT22;32646;50.958;6.258;2023-12-20T17:03:15;7.60;99.90
46898;DHT22;32646;50.958;6.258;2023-12-20T17:05:42;7.50;99.90
46898;DHT22;32646;50.958;6.258;2023-12-20T17:08:08;7.60;99.90
46898;DHT22;32646;50.958;6.258;2023-12-20T17:10:35;7.60;99.90
46898;DHT22;32646;50.958;6.258;2023-12-20T17:13:02;7.50;99.90
46898;DHT22;32646;50.958;6.258;2023-12-20T17:15:29;7.50;99.90
46898;DHT22;32646;50.958;6.258;2023-12-20T17:17:55;7.60;99.90
46898;DHT22;32646;50.958;6.258;2023-12-20T17:20:23;7.60;99.90
46898;DHT22;32646;50.958;6.258;2023-12-20T17:22:49;7.70;99.90
46898;DHT22;32646;50.958;6.258;2023-12-20T17:25:16;7.70;99.90
46898;DHT22;32646;50.958;6.258;2023-12-20T17:27:43;7.60;99.90
46898;DHT22;32646;50.958;6.258;2023-12-20T17:30:10;7.60;99.90
46898;DHT22;32646;50.958;6.258;2023-12-20T17:32:37;7.60;99.90
46898;DHT22;32646;50.958;6.258;2023-12-20T17:35:04;7.70;99.90
46898;DHT22;32646;50.958;6.258;2023-12-20T17:37:31;7.80;99.90
46898;DHT22;32646;50.958;6.258;2023-12-20T17:39:57;7.70;99.90
46898;DHT22;32646;50.958;6.258;2023-12-20T17:42:24;7.80;99.90
46898;DHT22;32646;50.958;6.258;2023-12-20T17:44:51;7.80;99.90
46898;DHT22;32646;50.958;6.258;2023-12-20T17:47:17;7.80;99.90
46898;DHT22;32646;50.958;6.258;2023-12-20T17:49:44;7.80;99.90
46898;DHT22;32646;50.958;6.258;2023-12-20T17:52:10;7.80;99.90
46898;DHT22;32646;50.958;6.258;2023-12-20T17:54:37;7.90;99.90
46898;DHT22;32646;50.958;6.258;2023-12-20T17:57:04;7.80;99.90
46898;DHT22;32646;50.958;6.258;2023-12-20T17:59:30;7.80;99.90
46898;DHT22;32646;50.958;6.258;2023-12-20T18:01:57;7.90;99.90
46898;DHT22;32646;50.958;6.258;2023-12-20T18:04:24;7.90;99.90
46898;DHT22;32646;50.958;6.258;2023-12-20T18:06:51;8.00;99.90
46898;DHT22;32646;50.958;6.258;2023-12-20T18:09:17;8.00;99.90
46898;DHT22;32646;50.958;6.258;2023-12-20T18:11:44;8.00;99.90
46898;DHT22;32646;50.958;6.258;2023-12-20T18:14:11;8.00;99.90
46898;DHT22;32646;50.958;6.258;2023-12-20T18:16:37;8.00;99.90
46898;DHT22;32646;50.958;6.258;2023-12-20T18:19:04;8.00;99.90
46898;DHT22;32646;50.958;6.258;2023-12-20T18:21:31;8.00;99.90
46898;DHT22;32646;50.958;6.258;2023-12-20T18:23:58;7.90;99.90
46898;DHT22;32646;50.958;6.258;2023-12-20T18:26:36;8.00;99.90
46898;DHT22;32646;50.958;6.258;2023-12-20T18:29:02;8.00;99.90
46898;DHT22;32646;50.958;6.258;2023-12-20T18:31:29;7.90;99.90
46898;DHT22;32646;50.958;6.258;2023-12-20T18:33:56;7.90;99.90
46898;DHT22;32646;50.958;6.258;2023-12-20T18:36:23;7.90;99.90
46898;DHT22;32646;50.958;6.258;2023-12-20T18:38:49;7.90;99.90
46898;DHT22;32646;50.958;6.258;2023-12-20T18:41:18;7.90;99.90
46898;DHT22;32646;50.958;6.258;2023-12-20T18:43:45;8.00;99.90
46898;DHT22;32646;50.958;6.258;2023-12-20T18:46:12;7.90;99.90
46898;DHT22;32646;50.958;6.258;2023-12-20T18:48:39;7.90;99.90
46898;DHT22;32646;50.958;6.258;2023-12-20T18:51:06;7.90;99.90
46898;DHT22;32646;50.958;6.258;2023-12-20T18:53:32;7.90;99.90
46898;DHT22;32646;50.958;6.258;2023-12-20T18:56:00;7.90;99.90
46898;DHT22;32646;50.958;6.258;2023-12-20T18:58:27;7.90;99.90
46898;DHT22;32646;50.958;6.258;2023-12-20T19:00:57;7.90;99.90
46898;DHT22;32646;50.958;6.258;2023-12-20T19:03:24;7.90;99.90
46898;DHT22;32646;50.958;6.258;2023-12-20T19:05:51;7.90;99.90
46898;DHT22;32646;50.958;6.258;2023-12-20T19:08:18;8.00;99.90
46898;DHT22;32646;50.958;6.258;2023-12-20T19:10:45;8.00;99.90
46898;DHT22;32646;50.958;6.258;2023-12-20T19:13:12;8.00;99.90
46898;DHT22;32646;50.958;6.258;2023-12-20T19:15:39;8.00;99.90
46898;DHT22;32646;50.958;6.258;2023-12-20T19:18:06;8.00;99.90
46898;DHT22;32646;50.958;6.258;2023-12-20T19:20:33;8.00;99.90
46898;DHT22;32646;50.958;6.258;2023-12-20T19:23:00;8.00;99.90
46898;DHT22;32646;50.958;6.258;2023-12-20T19:25:26;8.10;99.90
46898;DHT22;32646;50.958;6.258;2023-12-20T19:27:53;8.00;99.90
46898;DHT22;32646;50.958;6.258;2023-12-20T19:30:20;8.00;99.90
46898;DHT22;32646;50.958;6.258;2023-12-20T19:32:46;8.10;99.90
46898;DHT22;32646;50.958;6.258;2023-12-20T19:35:13;8.10;99.90
46898;DHT22;32646;50.958;6.258;2023-12-20T19:37:40;8.10;99.90
46898;DHT22;32646;50.958;6.258;2023-12-20T19:40:07;8.00;99.90
46898;DHT22;32646;50.958;6.258;2023-12-20T19:42:34;8.10;99.90
46898;DHT22;32646;50.958;6.258;2023-12-20T19:45:01;8.10;99.90
46898;DHT22;32646;50.958;6.258;2023-12-20T19:47:30;8.10;99.90
46898;DHT22;32646;50.958;6.258;2023-12-20T19:50:05;8.20;99.90
46898;DHT22;32646;50.958;6.258;2023-12-20T19:52:33;8.20;99.90
46898;DHT22;32646;50.958;6.258;2023-12-20T19:55:00;8.30;99.90
46898;DHT22;32646;50.958;6.258;2023-12-20T19:57:30;8.30;99.90
46898;DHT22;32646;50.958;6.258;2023-12-20T19:59:56;8.40;99.90
46898;DHT22;32646;50.958;6.258;2023-12-20T20:02:23;8.40;99.90
46898;DHT22;32646;50.958;6.258;2023-12-20T20:04:50;8.40;99.90
46898;DHT22;32646;50.958;6.258;2023-12-20T20:07:18;8.40;99.90
46898;DHT22;32646;50.958;6.258;2023-12-20T20:09:45;8.40;99.90
46898;DHT22;32646;50.958;6.258;2023-12-20T20:12:12;8.30;99.90
46898;DHT22;32646;50.958;6.258;2023-12-20T20:14:39;8.30;99.90
46898;DHT22;32646;50.958;6.258;2023-12-20T20:17:06;8.30;99.90
46898;DHT22;32646;50.958;6.258;2023-12-20T20:19:35;8.30;99.90
46898;DHT22;32646;50.958;6.258;2023-12-20T20:22:02;8.30;99.90
46898;DHT22;32646;50.958;6.258;2023-12-20T20:24:29;8.30;99.90
46898;DHT22;32646;50.958;6.258;2023-12-20T20:26:55;8.30;99.90
46898;DHT22;32646;50.958;6.258;2023-12-20T20:29:22;8.30;99.90
46898;DHT22;32646;50.958;6.258;2023-12-20T20:31:49;8.20;99.90
46898;DHT22;32646;50.958;6.258;2023-12-20T20:34:16;8.30;99.90
46898;DHT22;32646;50.958;6.258;2023-12-20T20:36:42;8.30;99.90
46898;DHT22;32646;50.958;6.258;2023-12-20T20:39:12;8.30;99.90
46898;DHT22;32646;50.958;6.258;2023-12-20T20:41:38;8.30;99.90
46898;DHT22;32646;50.958;6.258;2023-12-20T20:44:05;8.30;99.90
46898;DHT22;32646;50.958;6.258;2023-12-20T20:46:31;8.40;99.90
46898;DHT22;32646;50.958;6.258;2023-12-20T20:48:58;8.40;99.90
46898;DHT22;32646;50.958;6.258;2023-12-20T20:51:25;8.40;99.90
46898;DHT22;32646;50.958;6.258;2023-12-20T20:53:52;8.40;99.90
46898;DHT22;32646;50.958;6.258;2023-12-20T20:56:34;8.50;99.90
46898;DHT22;32646;50.958;6.258;2023-12-20T20:59:00;8.50;99.90
46898;DHT22;32646;50.958;6.258;2023-12-20T21:01:28;8.50;99.90
46898;DHT22;32646;50.958;6.258;2023-12-20T21:03:54;8.50;99.90
46898;DHT22;32646;50.958;6.258;2023-12-20T21:06:21;8.50;99.90
46898;DHT22;32646;50.958;6.258;2023-12-20T21:08:48;8.50;99.90
46898;DHT22;32646;50.958;6.258;2023-12-20T21:11:14;8.40;99.90
46898;DHT22;32646;50.958;6.258;2023-12-20T21:13:41;8.40;99.90
46898;DHT22;32646;50.958;6.258;2023-12-20T21:16:12;8.30;99.90
46898;DHT22;32646;50.958;6.258;2023-12-20T21:18:39;8.30;99.90
46898;DHT22;32646;50.958;6.258;2023-12-20T21:21:06;8.20;99.90
46898;DHT22;32646;50.958;6.258;2023-12-20T21:23:33;8.20;99.90
46898;DHT22;32646;50.958;6.258;2023-12-20T21:25:59;8.20;99.90
46898;DHT22;32646;50.958;6.258;2023-12-20T21:28:26;8.20;99.90
46898;DHT22;32646;50.958;6.258;2023-12-20T21:30:53;8.20;99.90
46898;DHT22;32646;50.958;6.258;2023-12-20T21:33:19;8.20;99.90
46898;DHT22;32646;50.958;6.258;2023-12-20T21:35:46;8.20;99.90
46898;DHT22;32646;50.958;6.258;2023-12-20T21:38:13;8.10;99.90
46898;DHT22;32646;50.958;6.258;2023-12-20T21:40:39;8.10;99.90
46898;DHT22;32646;50.958;6.258;2023-12-20T21:43:06;8.10;99.90
46898;DHT22;32646;50.958;6.258;2023-12-20T21:45:32;8.00;99.90
46898;DHT22;32646;50.958;6.258;2023-12-20T21:48:01;8.00;99.90
46898;DHT22;32646;50.958;6.258;2023-12-20T21:50:28;8.00;99.90
46898;DHT22;32646;50.958;6.258;2023-12-20T21:52:54;8.00;99.90
46898;DHT22;32646;50.958;6.258;2023-12-20T21:55:21;7.90;99.90
46898;DHT22;32646;50.958;6.258;2023-12-20T21:57:48;7.90;99.90
46898;DHT22;32646;50.958;6.258;2023-12-20T22:00:15;7.90;99.90
46898;DHT22;32646;50.958;6.258;2023-12-20T22:02:42;7.80;99.90
46898;DHT22;32646;50.958;6.258;2023-12-20T22:05:08;7.80;99.90
46898;DHT22;32646;50.958;6.258;2023-12-20T22:07:35;7.80;99.90
46898;DHT22;32646;50.958;6.258;2023-12-20T22:10:04;7.80;99.90
46898;DHT22;32646;50.958;6.258;2023-12-20T22:12:31;7.80;99.90
46898;DHT22;32646;50.958;6.258;2023-12-20T22:14:57;7.80;99.90
46898;DHT22;32646;50.958;6.258;2023-12-20T22:17:24;7.80;99.90
46898;DHT22;32646;50.958;6.258;2023-12-20T22:19:51;7.80;99.90
46898;DHT22;32646;50.958;6.258;2023-12-20T22:22:18;7.90;99.90
46898;DHT22;32646;50.958;6.258;2023-12-20T22:24:44;7.90;99.90
46898;DHT22;32646;50.958;6.258;2023-12-20T22:27:11;7.90;99.90
46898;DHT22;32646;50.958;6.258;2023-12-20T22:29:37;7.90;99.90
46898;DHT22;32646;50.958;6.258;2023-12-20T22:32:04;7.90;99.90
46898;DHT22;32646;50.958;6.258;2023-12-20T22:34:31;7.90;99.90
46898;DHT22;32646;50.958;6.258;2023-12-20T22:36:57;8.00;99.90
46898;DHT22;32646;50.958;6.258;2023-12-20T22:39:24;8.00;99.90
46898;DHT22;32646;50.958;6.258;2023-12-20T22:41:51;8.00;99.90
46898;DHT22;32646;50.958;6.258;2023-12-20T22:44:17;8.00;99.90
46898;DHT22;32646;50.958;6.258;2023-12-20T22:46:44;8.00;99.90
46898;DHT22;32646;50.958;6.258;2023-12-20T22:49:11;8.00;99.90
46898;DHT22;32646;50.958;6.258;2023-12-20T22:51:37;8.00;99.90
46898;DHT22;32646;50.958;6.258;2023-12-20T22:54:04;8.00;99.90
46898;DHT22;32646;50.958;6.258;2023-12-20T22:56:31;8.00;99.90
46898;DHT22;32646;50.958;6.258;2023-12-20T22:58:58;8.00;99.90
46898;DHT22;32646;50.958;6.258;2023-12-20T23:01:24;8.10;99.90
46898;DHT22;32646;50.958;6.258;2023-12-20T23:03:51;8.00;99.90
46898;DHT22;32646;50.958;6.258;2023-12-20T23:06:18;8.00;99.90
46898;DHT22;32646;50.958;6.258;2023-12-20T23:08:45;8.00;99.90
46898;DHT22;32646;50.958;6.258;2023-12-20T23:11:11;8.00;99.90
46898;DHT22;32646;50.958;6.258;2023-12-20T23:13:38;8.10;99.90
46898;DHT22;32646;50.958;6.258;2023-12-20T23:16:05;8.10;99.90
46898;DHT22;32646;50.958;6.258;2023-12-20T23:18:32;8.00;99.90
46898;DHT22;32646;50.958;6.258;2023-12-20T23:20:58;8.10;99.90
46898;DHT22;32646;50.958;6.258;2023-12-20T23:23:25;8.10;99.90
46898;DHT22;32646;50.958;6.258;2023-12-20T23:25:51;8.10;99.90
46898;DHT22;32646;50.958;6.258;2023-12-20T23:28:18;8.10;99.90
46898;DHT22;32646;50.958;6.258;2023-12-20T23:30:45;8.10;99.90
